Time;durP1;ratioP1;P1;durP2;ratioP2;P2;SDS_P1;SDS_P2;PMS_P1;PMS_P2;Temp;Humidity;BMP_temperature;BMP_pressure;BME280_temperature;BME280_humidity;BME280_pressure;Samples;Min_cycle;Max_cycle;Signal;HPM_P1;HPM_P2
2023/06/18 06:38:00;;;;;;;;;14.75;12.75;;;;;;;;5019602;27;3114654;-74
2023/06/18 06:40:25;;;;;;;;;21.25;21.25;;;;;;;;5088465;28;8940;-72
2023/06/18 06:42:50;;;;;;;;;22.75;21.25;;;;;;;;5106979;28;8802;-72
2023/06/18 06:45:16;;;;;;;;;23.25;22.00;;;;;;;;5106248;28;8790;-74
2023/06/18 06:47:41;;;;;;;;;19.25;19.25;;;;;;;;5104976;28;8825;-74
2023/06/18 06:50:06;;;;;;;;;21.00;21.00;;;;;;;;5106425;28;8863;-69
2023/06/18 06:52:32;;;;;;;;;18.25;17.50;;;;;;;;5106935;28;8806;-71
2023/06/18 06:54:57;;;;;;;;;24.00;21.75;;;;;;;;5106775;28;8809;-72
2023/06/18 06:57:22;;;;;;;;;20.25;19.00;;;;;;;;5106717;28;8818;-72
2023/06/18 06:59:47;;;;;;;;;18.75;17.75;;;;;;;;5105625;28;8822;-74
2023/06/18 07:02:13;;;;;;;;;19.25;18.00;;;;;;;;5102265;28;8812;-72
2023/06/18 07:04:38;;;;;;;;;19.50;19.50;;;;;;;;5103140;28;8818;-76
2023/06/18 07:07:03;;;;;;;;;21.50;20.00;;;;;;;;5106402;28;8810;-75
2023/06/18 07:09:29;;;;;;;;;21.50;19.00;;;;;;;;5106308;28;8798;-75
2023/06/18 07:11:54;;;;;;;;;19.00;16.75;;;;;;;;5104562;28;8795;-75
2023/06/18 07:14:19;;;;;;;;;22.00;19.50;;;;;;;;5106241;28;8804;-76
2023/06/18 07:16:45;;;;;;;;;20.00;20.00;;;;;;;;5105989;28;8890;-74
2023/06/18 07:19:10;;;;;;;;;23.50;22.50;;;;;;;;5105997;28;8782;-72
2023/06/18 07:21:36;;;;;;;;;21.00;19.00;;;;;;;;5103955;28;11456;-73
2023/06/18 07:24:01;;;;;;;;;22.25;21.75;;;;;;;;5033048;28;10441;-73
2023/06/18 07:26:26;;;;;;;;;22.00;21.25;;;;;;;;5054430;28;8786;-73
2023/06/18 07:28:51;;;;;;;;;18.50;18.50;;;;;;;;5065439;28;8817;-73
2023/06/18 07:31:17;;;;;;;;;21.00;19.00;;;;;;;;5045386;28;9097;-76
2023/06/18 07:33:45;;;;;;;;;22.50;20.00;;;;;;;;5064102;28;8782;-75
2023/06/18 07:36:10;;;;;;;;;22.75;20.75;;;;;;;;5069329;28;8828;-73
2023/06/18 07:38:35;;;;;;;;;21.75;20.00;;;;;;;;5055398;28;9674;-77
2023/06/18 07:41:01;;;;;;;;;21.00;20.00;;;;;;;;5054257;28;8819;-74
2023/06/18 07:43:26;;;;;;;;;18.00;17.00;;;;;;;;5073470;28;8902;-76
2023/06/18 07:45:51;;;;;;;;;22.67;20.00;;;;;;;;5072776;28;8806;-76
2023/06/18 07:48:17;;;;;;;;;19.67;19.00;;;;;;;;5067819;28;8817;-74
2023/06/18 07:50:42;;;;;;;;;21.00;20.33;;;;;;;;5060220;28;8820;-75
2023/06/18 07:53:07;;;;;;;;;18.33;18.33;;;;;;;;5034816;28;8811;-74
2023/06/18 07:55:32;;;;;;;;;17.00;17.00;;;;;;;;5032074;28;8808;-74
2023/06/18 07:57:58;;;;;;;;;24.33;23.00;;;;;;;;5031899;28;8796;-74
2023/06/18 08:00:23;;;;;;;;;20.00;20.00;;;;;;;;5034221;28;8926;-73
2023/06/18 08:02:48;;;;;;;;;20.67;19.67;;;;;;;;5045872;28;8814;-72
2023/06/18 08:05:13;;;;;;;;;20.00;20.00;;;;;;;;5049901;28;8795;-73
2023/06/18 08:07:39;;;;;;;;;20.33;19.33;;;;;;;;5050997;28;8982;-74
2023/06/18 08:10:05;;;;;;;;;19.33;19.33;;;;;;;;5050710;28;8822;-73
2023/06/18 08:12:30;;;;;;;;;21.33;19.00;;;;;;;;5048632;28;8826;-74
2023/06/18 08:14:56;;;;;;;;;35.33;33.00;;;;;;;;5050459;28;8821;-75
2023/06/18 08:17:21;;;;;;;;;21.33;19.33;;;;;;;;5050557;28;9022;-72
2023/06/18 08:19:47;;;;;;;;;21.67;20.00;;;;;;;;5029855;28;8805;-73
2023/06/18 08:22:14;;;;;;;;;21.50;17.75;;;;;;;;5041048;28;8795;-73
2023/06/18 08:24:39;;;;;;;;;20.25;19.00;;;;;;;;5050710;28;8804;-72
2023/06/18 08:27:04;;;;;;;;;21.33;17.67;;;;;;;;5050301;28;8810;-69
2023/06/18 08:29:30;;;;;;;;;18.67;18.00;;;;;;;;5049972;28;8810;-71
2023/06/18 08:31:55;;;;;;;;;22.00;18.00;;;;;;;;5050619;28;8834;-72
2023/06/18 08:34:20;;;;;;;;;19.33;17.67;;;;;;;;5050293;28;8822;-72
2023/06/18 08:36:47;;;;;;;;;19.67;16.00;;;;;;;;5050150;28;8944;-71
2023/06/18 08:39:12;;;;;;;;;19.75;17.00;;;;;;;;5032406;28;8937;-71
2023/06/18 08:41:40;;;;;;;;;17.00;15.00;;;;;;;;5051167;28;8924;-71
2023/06/18 08:44:05;;;;;;;;;15.25;14.25;;;;;;;;5050760;28;8802;-71
2023/06/18 08:46:34;;;;;;;;;18.33;17.67;;;;;;;;5050440;28;9932;-72
2023/06/18 08:49:02;;;;;;;;;18.25;17.00;;;;;;;;5028762;28;8808;-74
2023/06/18 08:51:28;;;;;;;;;31.00;28.67;;;;;;;;5029711;28;8801;-71
2023/06/18 08:54:12;;;;;;;;;21.00;18.00;;;;;;;;5029956;28;8807;-73
2023/06/18 08:56:42;;;;;;;;;17.00;16.00;;;;;;;;5031076;28;8800;-71
2023/06/18 08:59:08;;;;;;;;;18.75;18.75;;;;;;;;5030307;28;8785;-75
2023/06/18 09:01:33;;;;;;;;;18.75;17.75;;;;;;;;5030732;28;8819;-72
2023/06/18 09:03:59;;;;;;;;;13.00;13.00;;;;;;;;5030534;28;8785;-71
2023/06/18 09:06:25;;;;;;;;;16.00;14.00;;;;;;;;5030775;28;8824;-72
2023/06/18 09:08:50;;;;;;;;;11.33;11.33;;;;;;;;5030522;28;8939;-72
2023/06/18 09:11:16;;;;;;;;;10.00;9.67;;;;;;;;5030625;28;8793;-72
2023/06/18 09:13:42;;;;;;;;;11.00;10.00;;;;;;;;5030560;28;8899;-73
2023/06/18 09:16:08;;;;;;;;;13.75;12.00;;;;;;;;5030667;28;8808;-72
2023/06/18 09:18:33;;;;;;;;;31.67;28.33;;;;;;;;5034247;28;8999;-72
2023/06/18 09:20:59;;;;;;;;;17.67;15.00;;;;;;;;5050366;28;11492;-72
2023/06/18 09:23:25;;;;;;;;;12.33;12.00;;;;;;;;5049950;28;9525;-72
2023/06/18 09:25:52;;;;;;;;;12.50;12.50;;;;;;;;5050192;28;8786;-73
2023/06/18 09:28:18;;;;;;;;;13.50;12.25;;;;;;;;5050414;28;8790;-72
2023/06/18 09:30:51;;;;;;;;;14.25;12.25;;;;;;;;5050693;28;8813;-72
2023/06/18 09:33:33;;;;;;;;;17.75;13.00;;;;;;;;5048564;28;8822;-72
2023/06/18 09:35:59;;;;;;;;;13.25;13.25;;;;;;;;5048671;28;8818;-72
2023/06/18 09:38:31;;;;;;;;;12.67;11.67;;;;;;;;5049797;28;8848;-72
2023/06/18 09:40:56;;;;;;;;;10.25;9.50;;;;;;;;5049582;28;8840;-72
2023/06/18 09:43:22;;;;;;;;;10.33;10.33;;;;;;;;5050260;28;8931;-72
2023/06/18 09:45:47;;;;;;;;;13.33;12.00;;;;;;;;5031654;28;9790;-72
2023/06/18 09:48:12;;;;;;;;;12.67;12.67;;;;;;;;5049953;28;8782;-72
2023/06/18 09:50:41;;;;;;;;;13.33;12.67;;;;;;;;5032060;28;8822;-72
2023/06/18 09:53:16;;;;;;;;;11.00;11.00;;;;;;;;5049837;28;8920;-72
2023/06/18 09:55:41;;;;;;;;;13.75;11.00;;;;;;;;5050281;28;8794;-72
2023/06/18 09:58:06;;;;;;;;;18.33;15.33;;;;;;;;5049530;28;8825;-72
2023/06/18 10:00:41;;;;;;;;;16.00;14.67;;;;;;;;5031180;28;8839;-72
2023/06/18 10:03:07;;;;;;;;;13.00;12.00;;;;;;;;5049850;28;8821;-72
2023/06/18 10:05:33;;;;;;;;;14.25;14.25;;;;;;;;5049794;28;8802;-73
2023/06/18 10:07:59;;;;;;;;;15.00;14.50;;;;;;;;5049549;28;8813;-72
2023/06/18 10:10:25;;;;;;;;;17.00;16.67;;;;;;;;5049711;28;8787;-72
2023/06/18 10:12:53;;;;;;;;;14.00;14.00;;;;;;;;5049517;28;8798;-72
2023/06/18 10:15:19;;;;;;;;;17.00;16.75;;;;;;;;5049296;28;8770;-71
2023/06/18 10:17:47;;;;;;;;;17.00;15.25;;;;;;;;5049092;28;8812;-71
2023/06/18 10:20:14;;;;;;;;;14.25;14.25;;;;;;;;5049224;28;8929;-72
2023/06/18 10:22:45;;;;;;;;;13.00;13.00;;;;;;;;5048828;28;8800;-70
2023/06/18 10:25:10;;;;;;;;;13.00;10.50;;;;;;;;5030879;28;8848;-71
2023/06/18 10:27:36;;;;;;;;;10.00;10.00;;;;;;;;5049224;28;8812;-70
2023/06/18 10:30:02;;;;;;;;;15.00;14.00;;;;;;;;5049664;28;8802;-71
2023/06/18 10:32:29;;;;;;;;;14.00;13.00;;;;;;;;5048779;28;8898;-70
2023/06/18 10:34:57;;;;;;;;;7.50;5.75;;;;;;;;5046813;28;8809;-72
2023/06/18 10:37:25;;;;;;;;;11.00;10.00;;;;;;;;5049052;28;8972;-72
2023/06/18 10:39:51;;;;;;;;;14.50;10.75;;;;;;;;5048780;28;8816;-71
2023/06/18 10:42:16;;;;;;;;;14.67;14.67;;;;;;;;5049152;28;8806;-71
2023/06/18 10:44:47;;;;;;;;;19.00;16.67;;;;;;;;5048256;28;11588;-74
2023/06/18 10:47:17;;;;;;;;;15.50;14.25;;;;;;;;5048660;28;8834;-71
2023/06/18 10:50:03;;;;;;;;;14.50;14.50;;;;;;;;5048967;28;8945;-71
2023/06/18 10:52:30;;;;;;;;;14.75;12.50;;;;;;;;5049666;28;8805;-72
2023/06/18 10:55:04;;;;;;;;;31.25;29.75;;;;;;;;5047035;28;8813;-72
2023/06/18 10:57:30;;;;;;;;;29.33;26.67;;;;;;;;5049538;28;9544;-72
2023/06/18 10:59:56;;;;;;;;;19.67;16.33;;;;;;;;5048727;28;9222;-72
2023/06/18 11:02:32;;;;;;;;;15.75;14.25;;;;;;;;5048803;28;8828;-71
2023/06/18 11:04:58;;;;;;;;;15.00;14.00;;;;;;;;5047083;28;8790;-71
2023/06/18 11:07:23;;;;;;;;;15.00;13.33;;;;;;;;5048817;28;8826;-72
2023/06/18 11:09:52;;;;;;;;;10.00;10.00;;;;;;;;5049284;28;8823;-71
2023/06/18 11:12:27;;;;;;;;;13.00;12.25;;;;;;;;5049148;28;8817;-71
2023/06/18 11:15:11;;;;;;;;;17.00;16.00;;;;;;;;5047173;28;8848;-71
2023/06/18 11:17:37;;;;;;;;;14.25;12.50;;;;;;;;5029380;28;8784;-72
2023/06/18 11:20:03;;;;;;;;;12.25;12.00;;;;;;;;5045239;28;8953;-70
2023/06/18 11:22:29;;;;;;;;;11.00;9.75;;;;;;;;5049170;28;8781;-70
2023/06/18 11:24:56;;;;;;;;;12.67;10.67;;;;;;;;5050800;28;8790;-69
2023/06/18 11:27:24;;;;;;;;;15.25;11.25;;;;;;;;5032900;28;8852;-70
2023/06/18 11:29:49;;;;;;;;;9.00;9.00;;;;;;;;5032594;28;8797;-72
2023/06/18 11:32:18;;;;;;;;;9.00;8.00;;;;;;;;5033057;28;8792;-71
2023/06/18 11:34:44;;;;;;;;;13.00;11.75;;;;;;;;5031715;28;8820;-69
2023/06/18 11:37:09;;;;;;;;;7.00;7.00;;;;;;;;5051031;28;8864;-68
2023/06/18 11:39:35;;;;;;;;;12.00;12.00;;;;;;;;5052982;28;9560;-70
2023/06/18 11:42:20;;;;;;;;;10.33;10.33;;;;;;;;5052551;28;9521;-70
2023/06/18 11:44:58;;;;;;;;;13.00;13.00;;;;;;;;5051422;28;8814;-69
2023/06/18 11:47:23;;;;;;;;;15.25;14.25;;;;;;;;5052151;28;8830;-69
2023/06/18 11:49:54;;;;;;;;;14.00;13.00;;;;;;;;5051913;28;8967;-68
2023/06/18 11:52:21;;;;;;;;;16.75;14.25;;;;;;;;5052356;28;8814;-68
2023/06/18 11:54:48;;;;;;;;;12.00;11.25;;;;;;;;5051063;28;8786;-68
2023/06/18 11:57:14;;;;;;;;;24.25;19.50;;;;;;;;5051210;28;8898;-71
2023/06/18 11:59:39;;;;;;;;;12.33;11.67;;;;;;;;5052217;28;8765;-72
2023/06/18 12:02:09;;;;;;;;;14.00;14.00;;;;;;;;5051096;28;8827;-71
2023/06/18 12:04:35;;;;;;;;;16.50;15.25;;;;;;;;5052283;28;8812;-71
2023/06/18 12:07:03;;;;;;;;;14.00;13.00;;;;;;;;5050083;28;8868;-70
2023/06/18 12:09:33;;;;;;;;;14.00;13.75;;;;;;;;5052248;28;8782;-71
2023/06/18 12:12:16;;;;;;;;;16.00;15.75;;;;;;;;5052160;28;8829;-72
2023/06/18 12:14:54;;;;;;;;;15.00;14.00;;;;;;;;5033062;28;9548;-73
2023/06/18 12:17:19;;;;;;;;;15.00;13.50;;;;;;;;5050146;28;8937;-72
2023/06/18 12:19:47;;;;;;;;;15.67;14.00;;;;;;;;5030580;28;8819;-71
2023/06/18 12:22:13;;;;;;;;;13.00;11.75;;;;;;;;5032101;28;8765;-75
2023/06/18 12:24:38;;;;;;;;;13.33;12.33;;;;;;;;5032028;28;9476;-70
2023/06/18 12:27:04;;;;;;;;;14.00;13.00;;;;;;;;5049018;28;8842;-72
2023/06/18 12:29:29;;;;;;;;;14.33;14.00;;;;;;;;5051059;28;8794;-72
2023/06/18 12:32:04;;;;;;;;;13.00;13.00;;;;;;;;5051582;28;8830;-72
2023/06/18 12:34:32;;;;;;;;;15.50;14.00;;;;;;;;5049360;28;8829;-71
2023/06/18 12:36:58;;;;;;;;;13.50;13.25;;;;;;;;5048856;28;8834;-72
2023/06/18 12:39:23;;;;;;;;;12.33;12.33;;;;;;;;5051105;28;8840;-71
2023/06/18 12:41:48;;;;;;;;;12.33;12.33;;;;;;;;5049855;28;8928;-71
2023/06/18 12:44:13;;;;;;;;;13.33;13.33;;;;;;;;5051244;28;8824;-71
2023/06/18 12:46:43;;;;;;;;;15.33;12.67;;;;;;;;5049438;28;9026;-72
2023/06/18 12:49:08;;;;;;;;;11.00;11.00;;;;;;;;5050965;28;8836;-71
2023/06/18 12:51:40;;;;;;;;;10.67;10.67;;;;;;;;5051155;28;8896;-69
2023/06/18 12:54:15;;;;;;;;;10.00;9.50;;;;;;;;5051058;28;9012;-68
2023/06/18 12:56:52;;;;;;;;;8.50;8.00;;;;;;;;5051386;28;8813;-69
2023/06/18 12:59:22;;;;;;;;;9.00;9.00;;;;;;;;5050866;28;9741;-70
2023/06/18 13:01:47;;;;;;;;;10.25;10.25;;;;;;;;5051071;28;8798;-72
2023/06/18 13:04:13;;;;;;;;;10.33;8.33;;;;;;;;5048573;28;8814;-68
2023/06/18 13:06:39;;;;;;;;;10.67;10.67;;;;;;;;5049516;28;8934;-68
2023/06/18 13:09:05;;;;;;;;;12.33;11.00;;;;;;;;5050183;28;8929;-69
2023/06/18 13:11:31;;;;;;;;;8.75;8.75;;;;;;;;5050286;28;8830;-68
2023/06/18 13:13:57;;;;;;;;;10.50;10.00;;;;;;;;5049859;28;9529;-68
2023/06/18 13:16:22;;;;;;;;;9.00;8.00;;;;;;;;5050551;28;8825;-68
2023/06/18 13:18:47;;;;;;;;;11.50;11.00;;;;;;;;5050824;28;8798;-70
2023/06/18 13:21:13;;;;;;;;;12.00;11.67;;;;;;;;5050818;28;8913;-71
2023/06/18 13:23:38;;;;;;;;;13.67;13.33;;;;;;;;5050386;28;8786;-73
2023/06/18 13:26:03;;;;;;;;;10.00;9.00;;;;;;;;5032388;28;9549;-71
2023/06/18 13:28:29;;;;;;;;;15.33;13.00;;;;;;;;5050209;28;9071;-72
2023/06/18 13:30:54;;;;;;;;;7.33;5.00;;;;;;;;5050186;28;8790;-71
2023/06/18 13:33:19;;;;;;;;;14.00;9.33;;;;;;;;5049362;28;9016;-70
2023/06/18 13:35:45;;;;;;;;;12.00;11.67;;;;;;;;5050218;28;9505;-72
2023/06/18 13:38:10;;;;;;;;;13.33;13.33;;;;;;;;5050033;28;8829;-70
2023/06/18 13:40:36;;;;;;;;;11.00;11.00;;;;;;;;5032115;28;8948;-71
2023/06/18 13:43:01;;;;;;;;;81.00;64.25;;;;;;;;5049692;28;9545;-73
2023/06/18 13:45:28;;;;;;;;;46.25;35.25;;;;;;;;5049370;28;8787;-74
2023/06/18 13:47:53;;;;;;;;;26.00;24.33;;;;;;;;5031907;28;8841;-73
2023/06/18 13:50:18;;;;;;;;;17.33;17.00;;;;;;;;5028362;28;8984;-73
2023/06/18 13:52:44;;;;;;;;;11.67;11.00;;;;;;;;5045058;28;8945;-74
2023/06/18 13:55:09;;;;;;;;;14.33;14.33;;;;;;;;5049332;28;8810;-74
2023/06/18 13:57:34;;;;;;;;;14.33;13.00;;;;;;;;5048173;28;8791;-74
2023/06/18 14:00:00;;;;;;;;;13.67;12.00;;;;;;;;5049764;28;8933;-74
2023/06/18 14:02:25;;;;;;;;;11.33;11.33;;;;;;;;5051306;28;8798;-73
2023/06/18 14:04:50;;;;;;;;;15.33;14.00;;;;;;;;5052508;28;8795;-75
2023/06/18 14:07:15;;;;;;;;;13.67;12.33;;;;;;;;5048571;28;8826;-74
2023/06/18 14:09:41;;;;;;;;;12.00;11.00;;;;;;;;5048776;28;8772;-73
2023/06/18 14:12:06;;;;;;;;;13.00;12.33;;;;;;;;5047998;28;8807;-74
2023/06/18 14:14:33;;;;;;;;;14.00;14.00;;;;;;;;5047469;28;8908;-73
2023/06/18 14:16:58;;;;;;;;;14.75;13.25;;;;;;;;5048122;28;8819;-75
2023/06/18 14:19:25;;;;;;;;;13.67;13.67;;;;;;;;5048838;28;8829;-73
2023/06/18 14:21:50;;;;;;;;;14.00;13.50;;;;;;;;5048943;28;8806;-73
2023/06/18 14:24:15;;;;;;;;;15.67;14.33;;;;;;;;5029538;28;9560;-79
2023/06/18 14:26:41;;;;;;;;;16.00;15.00;;;;;;;;5042598;28;8830;-73
2023/06/18 14:29:06;;;;;;;;;15.00;14.00;;;;;;;;5044930;28;8902;-75
2023/06/18 14:31:32;;;;;;;;;17.00;16.67;;;;;;;;5048430;28;8803;-77
2023/06/18 14:33:57;;;;;;;;;13.33;13.33;;;;;;;;5049371;28;8799;-78
2023/06/18 14:36:22;;;;;;;;;14.67;14.33;;;;;;;;5053274;28;8814;-79
2023/06/18 14:38:48;;;;;;;;;12.33;12.33;;;;;;;;5037698;28;8838;-77
2023/06/18 14:41:14;;;;;;;;;14.00;14.00;;;;;;;;5060020;28;8800;-77
2023/06/18 14:43:40;;;;;;;;;17.75;14.00;;;;;;;;5042753;28;8969;-74
2023/06/18 14:46:06;;;;;;;;;15.00;12.67;;;;;;;;5048604;28;8798;-70
2023/06/18 14:48:33;;;;;;;;;19.33;14.67;;;;;;;;5046443;28;8916;-69
2023/06/18 14:50:58;;;;;;;;;15.67;15.67;;;;;;;;5048790;28;9517;-69
2023/06/18 14:53:23;;;;;;;;;16.33;15.33;;;;;;;;5048982;28;8916;-70
2023/06/18 14:55:48;;;;;;;;;14.00;14.00;;;;;;;;5024691;28;8840;-72
2023/06/18 14:58:15;;;;;;;;;16.00;16.00;;;;;;;;5047759;28;8925;-67
2023/06/18 15:00:40;;;;;;;;;14.50;14.00;;;;;;;;5052752;28;8888;-68
2023/06/18 15:03:05;;;;;;;;;20.00;14.00;;;;;;;;5051825;28;9537;-69
2023/06/18 15:05:31;;;;;;;;;15.67;13.33;;;;;;;;5051563;28;8845;-74
2023/06/18 15:07:56;;;;;;;;;19.00;15.67;;;;;;;;5049586;28;8865;-74
2023/06/18 15:10:21;;;;;;;;;14.00;13.00;;;;;;;;5051800;28;8794;-72
2023/06/18 15:12:46;;;;;;;;;15.00;13.00;;;;;;;;5051602;28;8982;-72
2023/06/18 15:15:15;;;;;;;;;12.67;12.33;;;;;;;;5051502;28;9523;-73
2023/06/18 15:17:41;;;;;;;;;16.25;15.75;;;;;;;;5049881;28;8830;-78
2023/06/18 15:20:06;;;;;;;;;15.00;11.67;;;;;;;;5052528;28;8913;-75
2023/06/18 15:22:32;;;;;;;;;18.00;17.33;;;;;;;;5052659;28;11461;-71
2023/06/18 15:24:58;;;;;;;;;16.67;16.67;;;;;;;;5052380;28;8797;-72
2023/06/18 15:27:23;;;;;;;;;14.25;14.25;;;;;;;;5032799;28;8849;-71
2023/06/18 15:29:48;;;;;;;;;15.67;15.67;;;;;;;;5051687;28;8790;-77
2023/06/18 15:32:14;;;;;;;;;18.67;16.67;;;;;;;;5052715;28;9481;-74
2023/06/18 15:34:39;;;;;;;;;16.67;16.33;;;;;;;;5034076;28;8821;-72
2023/06/18 15:37:05;;;;;;;;;15.33;14.00;;;;;;;;5051983;28;8826;-78
2023/06/18 15:39:31;;;;;;;;;16.00;16.00;;;;;;;;5050195;28;8820;-76
2023/06/18 15:41:56;;;;;;;;;16.33;16.33;;;;;;;;5052252;28;8790;-73
2023/06/18 15:44:21;;;;;;;;;16.00;14.33;;;;;;;;5048903;28;8807;-78
2023/06/18 15:46:46;;;;;;;;;15.67;15.67;;;;;;;;5051607;28;8830;-74
2023/06/18 15:49:12;;;;;;;;;15.00;15.00;;;;;;;;5049552;28;8822;-75
2023/06/18 15:51:37;;;;;;;;;16.67;13.67;;;;;;;;5050741;28;8878;-72
2023/06/18 15:54:03;;;;;;;;;14.00;14.00;;;;;;;;5050005;28;9534;-72
2023/06/18 15:56:28;;;;;;;;;15.67;14.67;;;;;;;;5050812;28;8912;-72
2023/06/18 15:58:53;;;;;;;;;17.33;16.33;;;;;;;;5051707;28;9855;-74
2023/06/18 16:01:18;;;;;;;;;16.00;15.00;;;;;;;;5051885;28;8779;-74
2023/06/18 16:03:44;;;;;;;;;15.00;14.67;;;;;;;;5051960;28;9582;-75
2023/06/18 16:06:09;;;;;;;;;15.00;13.67;;;;;;;;5051688;28;8794;-74
2023/06/18 16:08:34;;;;;;;;;15.00;14.00;;;;;;;;5033316;28;8940;-75
2023/06/18 16:10:59;;;;;;;;;13.67;13.33;;;;;;;;5051712;28;8798;-75
2023/06/18 16:13:25;;;;;;;;;15.00;15.00;;;;;;;;5033887;28;8974;-75
2023/06/18 16:15:50;;;;;;;;;16.00;15.67;;;;;;;;5033740;28;8886;-75
2023/06/18 16:18:17;;;;;;;;;17.67;17.00;;;;;;;;5051109;28;8927;-75
2023/06/18 16:20:42;;;;;;;;;15.50;13.50;;;;;;;;5051537;28;8818;-75
2023/06/18 16:23:08;;;;;;;;;17.00;16.00;;;;;;;;5051494;28;8799;-75
2023/06/18 16:25:33;;;;;;;;;17.33;16.00;;;;;;;;5051710;28;8885;-75
2023/06/18 16:27:59;;;;;;;;;15.33;14.33;;;;;;;;5051421;28;8829;-75
2023/06/18 16:30:25;;;;;;;;;21.67;19.00;;;;;;;;5051669;28;8875;-75
2023/06/18 16:32:51;;;;;;;;;16.00;15.75;;;;;;;;5033484;28;9672;-74
2023/06/18 16:35:18;;;;;;;;;14.67;14.00;;;;;;;;5049965;28;8816;-74
2023/06/18 16:37:43;;;;;;;;;15.25;15.25;;;;;;;;5032704;28;8858;-74
2023/06/18 16:40:09;;;;;;;;;16.33;15.00;;;;;;;;5033252;28;8830;-75
2023/06/18 16:42:34;;;;;;;;;17.00;15.00;;;;;;;;5051172;28;8790;-75
2023/06/18 16:44:59;;;;;;;;;15.33;13.33;;;;;;;;5050957;28;8797;-75
2023/06/18 16:47:25;;;;;;;;;18.67;15.33;;;;;;;;5050939;28;8810;-75
2023/06/18 16:49:50;;;;;;;;;15.00;14.33;;;;;;;;5050868;28;8795;-75
2023/06/18 16:52:16;;;;;;;;;16.33;15.33;;;;;;;;5051076;28;8908;-75
2023/06/18 16:54:41;;;;;;;;;15.67;15.67;;;;;;;;5050642;28;8837;-75
2023/06/18 16:57:06;;;;;;;;;14.67;14.00;;;;;;;;5050831;28;8791;-76
2023/06/18 16:59:32;;;;;;;;;19.00;15.67;;;;;;;;5050809;28;8808;-75
2023/06/18 17:01:57;;;;;;;;;15.00;15.00;;;;;;;;5050691;28;9521;-75
2023/06/18 17:04:23;;;;;;;;;15.00;15.00;;;;;;;;5032714;28;8830;-76
2023/06/18 17:06:48;;;;;;;;;15.25;14.00;;;;;;;;5050520;28;8822;-73
2023/06/18 17:09:14;;;;;;;;;17.67;16.00;;;;;;;;5050533;28;9517;-76
2023/06/18 17:11:39;;;;;;;;;16.00;14.00;;;;;;;;5050161;28;8810;-75
2023/06/18 17:14:05;;;;;;;;;16.33;15.33;;;;;;;;5050506;28;8798;-76
2023/06/18 17:16:30;;;;;;;;;15.33;14.33;;;;;;;;5050232;28;8907;-75
2023/06/18 17:18:55;;;;;;;;;16.00;15.00;;;;;;;;5050106;28;8798;-75
2023/06/18 17:21:21;;;;;;;;;14.33;13.00;;;;;;;;5049508;28;8794;-75
2023/06/18 17:23:46;;;;;;;;;15.00;15.00;;;;;;;;5050270;28;8803;-75
2023/06/18 17:26:12;;;;;;;;;14.67;14.33;;;;;;;;5050186;28;8829;-75
2023/06/18 17:28:37;;;;;;;;;14.33;14.33;;;;;;;;5050212;28;8841;-75
2023/06/18 17:31:03;;;;;;;;;15.00;13.33;;;;;;;;5050412;28;8822;-74
2023/06/18 17:33:28;;;;;;;;;18.00;14.67;;;;;;;;5049861;28;8794;-72
2023/06/18 17:35:53;;;;;;;;;17.33;17.33;;;;;;;;5050345;28;9023;-72
2023/06/18 17:38:19;;;;;;;;;16.00;14.33;;;;;;;;5049584;28;8851;-72
2023/06/18 17:40:44;;;;;;;;;17.33;17.00;;;;;;;;5046797;28;8822;-79
2023/06/18 17:43:10;;;;;;;;;20.00;16.00;;;;;;;;5031841;28;9678;-72
2023/06/18 17:45:35;;;;;;;;;16.00;14.67;;;;;;;;5049614;28;8820;-71
2023/06/18 17:48:01;;;;;;;;;18.33;15.33;;;;;;;;5049469;28;11544;-70
2023/06/18 17:50:27;;;;;;;;;15.67;15.67;;;;;;;;5049236;28;9547;-72
2023/06/18 17:52:52;;;;;;;;;19.00;15.00;;;;;;;;5031034;28;8834;-70
2023/06/18 17:55:17;;;;;;;;;18.67;17.00;;;;;;;;5049351;28;8794;-71
2023/06/18 17:57:43;;;;;;;;;17.33;16.00;;;;;;;;5049201;28;8810;-69
2023/06/18 18:00:08;;;;;;;;;17.33;15.33;;;;;;;;5048880;28;8811;-69
2023/06/18 18:02:34;;;;;;;;;20.67;18.00;;;;;;;;5048977;28;9757;-71
2023/06/18 18:04:59;;;;;;;;;21.67;18.67;;;;;;;;5048946;28;8895;-72
2023/06/18 18:07:24;;;;;;;;;21.33;19.00;;;;;;;;5048809;28;8892;-72
2023/06/18 18:09:50;;;;;;;;;21.33;19.00;;;;;;;;5048575;28;8806;-72
2023/06/18 18:12:15;;;;;;;;;12.67;12.67;;;;;;;;5049139;28;8983;-73
2023/06/18 18:14:40;;;;;;;;;17.67;16.67;;;;;;;;5049080;28;8818;-73
2023/06/18 18:17:06;;;;;;;;;17.00;17.00;;;;;;;;5049210;28;8794;-70
2023/06/18 18:19:31;;;;;;;;;23.00;21.67;;;;;;;;5049141;28;8834;-71
2023/06/18 18:21:57;;;;;;;;;16.00;14.00;;;;;;;;5048773;28;8811;-70
2023/06/18 18:24:22;;;;;;;;;14.67;14.00;;;;;;;;5048916;28;8849;-69
2023/06/18 18:26:47;;;;;;;;;16.33;13.33;;;;;;;;5048787;28;8841;-72
2023/06/18 18:29:13;;;;;;;;;13.67;13.00;;;;;;;;5049235;28;8820;-71
2023/06/18 18:31:38;;;;;;;;;14.00;14.00;;;;;;;;5049539;28;8829;-71
2023/06/18 18:34:03;;;;;;;;;22.00;16.00;;;;;;;;5049379;28;8837;-72
2023/06/18 18:36:29;;;;;;;;;13.33;11.00;;;;;;;;5049338;28;8933;-71
2023/06/18 18:38:54;;;;;;;;;18.00;16.00;;;;;;;;5049614;28;8778;-70
2023/06/18 18:41:19;;;;;;;;;14.00;13.67;;;;;;;;5049624;28;8901;-70
2023/06/18 18:43:44;;;;;;;;;19.33;15.00;;;;;;;;5049567;28;8801;-71
2023/06/18 18:46:10;;;;;;;;;18.67;18.67;;;;;;;;5048954;28;8810;-71
2023/06/18 18:48:35;;;;;;;;;17.00;17.00;;;;;;;;5049478;28;8806;-71
2023/06/18 18:51:00;;;;;;;;;17.00;15.00;;;;;;;;5047973;28;8798;-70
2023/06/18 18:53:25;;;;;;;;;17.00;16.00;;;;;;;;5049346;28;8810;-70
2023/06/18 18:55:51;;;;;;;;;17.33;17.33;;;;;;;;5049441;28;8813;-70
2023/06/18 18:58:16;;;;;;;;;16.33;15.00;;;;;;;;5049456;28;8825;-69
2023/06/18 19:00:41;;;;;;;;;17.00;16.33;;;;;;;;5049295;28;8893;-70
2023/06/18 19:03:07;;;;;;;;;15.67;14.67;;;;;;;;5049188;28;8787;-68
2023/06/18 19:05:32;;;;;;;;;18.33;18.33;;;;;;;;5049061;28;8914;-70
2023/06/18 19:07:57;;;;;;;;;15.00;14.00;;;;;;;;5049107;28;8821;-70
2023/06/18 19:10:23;;;;;;;;;16.67;15.33;;;;;;;;5031399;28;8928;-71
2023/06/18 19:12:50;;;;;;;;;13.33;12.33;;;;;;;;5049247;28;8888;-69
2023/06/18 19:15:16;;;;;;;;;19.25;15.25;;;;;;;;5049206;28;8778;-68
2023/06/18 19:17:42;;;;;;;;;17.67;16.33;;;;;;;;5047733;28;8941;-68
2023/06/18 19:20:07;;;;;;;;;14.00;14.00;;;;;;;;5048931;28;8909;-70
2023/06/18 19:22:33;;;;;;;;;17.67;14.67;;;;;;;;5048586;28;8821;-67
2023/06/18 19:25:01;;;;;;;;;16.33;15.33;;;;;;;;5048935;28;8794;-68
2023/06/18 19:27:27;;;;;;;;;15.50;14.25;;;;;;;;5048862;28;8845;-67
2023/06/18 19:29:52;;;;;;;;;15.67;15.67;;;;;;;;5048734;28;8798;-67
2023/06/18 19:32:18;;;;;;;;;16.00;16.00;;;;;;;;5047642;28;8889;-68
2023/06/18 19:34:43;;;;;;;;;18.00;16.00;;;;;;;;5029857;28;8798;-67
2023/06/18 19:37:08;;;;;;;;;15.67;15.67;;;;;;;;5048170;28;8841;-67
2023/06/18 19:39:33;;;;;;;;;15.33;15.33;;;;;;;;5047785;28;8787;-66
2023/06/18 19:41:59;;;;;;;;;15.00;14.67;;;;;;;;5048461;28;8830;-68
2023/06/18 19:44:24;;;;;;;;;15.67;15.67;;;;;;;;5050297;28;8970;-68
2023/06/18 19:46:50;;;;;;;;;17.33;15.67;;;;;;;;5052080;28;8822;-69
2023/06/18 19:49:15;;;;;;;;;16.33;16.33;;;;;;;;5052147;28;8836;-71
2023/06/18 19:51:41;;;;;;;;;18.00;16.67;;;;;;;;5050568;28;8822;-70
2023/06/18 19:54:07;;;;;;;;;17.25;16.00;;;;;;;;5050417;28;8786;-67
2023/06/18 19:56:32;;;;;;;;;17.00;17.00;;;;;;;;5050095;28;9619;-67
2023/06/18 19:58:57;;;;;;;;;14.67;14.67;;;;;;;;5034639;28;8822;-68
2023/06/18 20:01:23;;;;;;;;;17.33;16.33;;;;;;;;5048482;28;8933;-68
2023/06/18 20:03:48;;;;;;;;;17.67;16.00;;;;;;;;5033220;28;8810;-68
2023/06/18 20:06:13;;;;;;;;;17.00;16.33;;;;;;;;5052497;28;8804;-68
2023/06/18 20:08:38;;;;;;;;;19.00;17.00;;;;;;;;5051707;28;8779;-68
2023/06/18 20:11:05;;;;;;;;;18.00;15.33;;;;;;;;5056597;28;8902;-68
2023/06/18 20:13:30;;;;;;;;;16.67;16.67;;;;;;;;5059476;28;8810;-68
2023/06/18 20:15:56;;;;;;;;;18.67;16.33;;;;;;;;5059402;28;9561;-68
2023/06/18 20:18:21;;;;;;;;;16.33;15.33;;;;;;;;5051693;28;8829;-69
2023/06/18 20:20:47;;;;;;;;;13.33;13.00;;;;;;;;5051339;28;8957;-70
2023/06/18 20:23:12;;;;;;;;;15.00;15.00;;;;;;;;5059469;28;8816;-69
2023/06/18 20:25:38;;;;;;;;;15.67;14.00;;;;;;;;5061007;28;8814;-69
2023/06/18 20:28:03;;;;;;;;;19.33;17.33;;;;;;;;5060962;28;8823;-69
2023/06/18 20:30:29;;;;;;;;;19.67;19.33;;;;;;;;5061998;28;8773;-69
2023/06/18 20:32:54;;;;;;;;;12.00;10.67;;;;;;;;5057212;28;8828;-69
2023/06/18 20:35:19;;;;;;;;;16.00;15.67;;;;;;;;5055595;28;8769;-68
2023/06/18 20:37:44;;;;;;;;;17.00;16.00;;;;;;;;5055330;28;8854;-68
2023/06/18 20:40:10;;;;;;;;;20.67;20.67;;;;;;;;5057333;28;8791;-69
2023/06/18 20:42:35;;;;;;;;;23.00;21.00;;;;;;;;5049292;28;9513;-69
2023/06/18 20:45:01;;;;;;;;;17.00;17.00;;;;;;;;5048040;28;8802;-69
2023/06/18 20:47:26;;;;;;;;;17.67;17.33;;;;;;;;5048877;28;8842;-68
2023/06/18 20:49:51;;;;;;;;;16.33;15.67;;;;;;;;5049084;28;8778;-68
2023/06/18 20:52:16;;;;;;;;;17.33;17.00;;;;;;;;5048971;28;8817;-68
2023/06/18 20:54:42;;;;;;;;;21.67;20.33;;;;;;;;5048684;28;8857;-68
2023/06/18 20:57:08;;;;;;;;;20.00;17.33;;;;;;;;5048348;28;8791;-68
2023/06/18 20:59:33;;;;;;;;;20.33;18.67;;;;;;;;5030649;28;8820;-68
2023/06/18 21:01:58;;;;;;;;;20.00;19.00;;;;;;;;5048618;28;8941;-69